createdAt,value
2017-08-11T00:02:03.172Z,11.50
2017-08-11T00:04:30.792Z,11.40
2017-08-11T00:06:58.420Z,11.40
2017-08-11T00:09:28.131Z,11.40
2017-08-11T00:11:56.436Z,11.40
2017-08-11T00:14:25.281Z,11.50
2017-08-11T00:16:54.267Z,11.50
2017-08-11T00:19:22.505Z,11.50
2017-08-11T00:21:51.240Z,11.50
2017-08-11T00:24:19.728Z,11.50
2017-08-11T00:26:47.339Z,11.50
2017-08-11T00:29:14.959Z,11.50
2017-08-11T00:31:42.681Z,11.50
2017-08-11T00:34:10.436Z,11.50
2017-08-11T00:36:38.060Z,11.40
2017-08-11T00:39:05.949Z,11.30
2017-08-11T00:41:33.572Z,11.40
2017-08-11T00:44:01.192Z,11.40
2017-08-11T00:46:29.036Z,11.50
2017-08-11T00:48:56.701Z,11.40
2017-08-11T00:51:24.360Z,11.40
2017-08-11T00:53:52.338Z,11.40
2017-08-11T00:56:20.005Z,11.40
2017-08-11T00:58:47.626Z,11.40
2017-08-11T01:01:15.532Z,11.40
2017-08-11T01:03:43.150Z,11.40
2017-08-11T01:06:10.772Z,11.50
2017-08-11T01:08:38.449Z,11.40
2017-08-11T01:11:06.081Z,11.40
2017-08-11T01:13:33.749Z,11.40
2017-08-11T01:16:01.509Z,11.40
2017-08-11T01:18:29.116Z,11.30
2017-08-11T01:20:56.729Z,11.40
2017-08-11T01:23:24.385Z,11.30
2017-08-11T01:25:51.994Z,11.40
2017-08-11T01:28:20.377Z,11.30
2017-08-11T01:30:48.837Z,11.40
2017-08-11T01:33:16.460Z,11.40
2017-08-11T01:35:44.092Z,11.40
2017-08-11T01:38:11.802Z,11.30
2017-08-11T01:40:39.876Z,11.30
2017-08-11T01:43:07.544Z,11.30
2017-08-11T01:45:35.211Z,11.30
2017-08-11T01:48:02.962Z,11.20
2017-08-11T01:50:31.205Z,11.20
2017-08-11T01:52:58.908Z,11.20
2017-08-11T01:55:26.567Z,11.20
2017-08-11T01:57:54.217Z,11.20
2017-08-11T02:00:21.972Z,11.20
2017-08-11T02:02:49.646Z,11.10
2017-08-11T02:05:17.345Z,11.10
2017-08-11T02:07:45.064Z,11.10
2017-08-11T02:10:12.693Z,11.00
2017-08-11T02:12:41.439Z,11.10
2017-08-11T02:15:09.164Z,11.10
2017-08-11T02:17:36.792Z,11.20
2017-08-11T02:20:04.413Z,11.20
2017-08-11T02:22:32.092Z,11.20
2017-08-11T02:24:59.828Z,11.20
2017-08-11T02:27:27.461Z,11.30
2017-08-11T02:29:55.799Z,11.30
2017-08-11T02:32:23.414Z,11.20
2017-08-11T02:34:51.032Z,11.20
2017-08-11T02:37:18.712Z,11.20
2017-08-11T02:39:46.325Z,11.20
2017-08-11T02:42:13.935Z,11.20
2017-08-11T02:44:41.656Z,11.20
2017-08-11T02:47:09.269Z,11.20
2017-08-11T02:49:36.894Z,11.20
2017-08-11T02:52:04.764Z,11.20
2017-08-11T02:54:32.381Z,11.20
2017-08-11T02:57:00.004Z,11.20
2017-08-11T02:59:27.974Z,11.30
2017-08-11T03:01:55.592Z,11.30
2017-08-11T03:04:23.201Z,11.20
2017-08-11T03:06:50.854Z,11.20
2017-08-11T03:09:18.502Z,11.20
2017-08-11T03:11:46.114Z,11.20
2017-08-11T03:14:13.785Z,11.20
2017-08-11T03:16:41.420Z,11.20
2017-08-11T03:19:09.054Z,11.30
2017-08-11T03:21:36.747Z,11.30
2017-08-11T03:24:04.382Z,11.30
2017-08-11T03:26:32.010Z,11.30
2017-08-11T03:28:59.934Z,11.30
2017-08-11T03:31:27.544Z,11.30
2017-08-11T03:33:55.176Z,11.30
2017-08-11T03:36:23.616Z,11.30
2017-08-11T03:38:51.256Z,11.30
2017-08-11T03:41:18.863Z,11.30
2017-08-11T03:43:46.525Z,11.30
2017-08-11T03:46:14.152Z,11.30
2017-08-11T03:48:41.770Z,11.40
2017-08-11T03:51:09.448Z,11.30
2017-08-11T03:53:37.068Z,11.30
2017-08-11T03:56:04.690Z,11.30
2017-08-11T03:58:32.354Z,11.30
2017-08-11T04:00:59.985Z,11.30
2017-08-11T04:03:28.644Z,11.30
2017-08-11T04:05:56.304Z,11.30
2017-08-11T04:08:23.924Z,11.30
2017-08-11T04:10:51.816Z,11.30
2017-08-11T04:13:19.711Z,11.40
2017-08-11T04:15:47.357Z,11.40
2017-08-11T04:18:14.972Z,11.40
2017-08-11T04:20:43.696Z,11.40
2017-08-11T04:23:11.318Z,11.30
2017-08-11T04:25:38.931Z,11.40
2017-08-11T04:28:06.600Z,11.30
2017-08-11T04:30:34.215Z,11.30
2017-08-11T04:33:02.137Z,11.30
2017-08-11T04:35:29.801Z,11.30
2017-08-11T04:37:57.452Z,11.30
2017-08-11T04:40:25.128Z,11.30
2017-08-11T04:42:52.777Z,11.40
2017-08-11T04:45:20.413Z,11.30
2017-08-11T04:47:48.020Z,11.30
2017-08-11T04:50:15.683Z,11.30
2017-08-11T04:52:43.308Z,11.30
2017-08-11T04:55:10.940Z,11.30
2017-08-11T04:57:38.632Z,11.30
2017-08-11T05:00:06.253Z,11.30
2017-08-11T05:02:33.872Z,11.30
2017-08-11T05:05:01.529Z,11.40
2017-08-11T05:07:29.397Z,11.30
2017-08-11T05:09:57.018Z,11.40
2017-08-11T05:12:24.704Z,11.30
2017-08-11T05:14:52.316Z,11.40
2017-08-11T05:17:19.938Z,11.40
2017-08-11T05:19:47.604Z,11.40
2017-08-11T05:22:15.373Z,11.40
2017-08-11T05:24:43.048Z,11.50
2017-08-11T05:27:10.729Z,11.60
2017-08-11T05:29:38.344Z,11.50
2017-08-11T05:32:05.964Z,11.60
2017-08-11T05:34:33.644Z,11.50
2017-08-11T05:37:01.263Z,11.50
2017-08-11T05:39:28.953Z,11.50
2017-08-11T05:41:56.815Z,11.50
2017-08-11T05:44:24.432Z,11.50
2017-08-11T05:46:52.063Z,11.50
2017-08-11T05:49:19.724Z,11.50
2017-08-11T05:51:47.342Z,11.50
2017-08-11T05:54:14.968Z,11.50
2017-08-11T05:56:42.647Z,11.50
2017-08-11T05:59:10.265Z,11.50
2017-08-11T06:01:38.008Z,11.50
2017-08-11T06:04:05.677Z,11.50
2017-08-11T06:06:33.972Z,11.50
2017-08-11T06:09:01.704Z,11.50
2017-08-11T06:11:29.385Z,11.50
2017-08-11T06:13:57.007Z,11.50
2017-08-11T06:16:24.633Z,11.50
2017-08-11T06:18:52.473Z,11.50
2017-08-11T06:21:20.100Z,11.50
2017-08-11T06:23:47.725Z,11.50
2017-08-11T06:26:15.705Z,11.50
2017-08-11T06:28:44.150Z,11.50
2017-08-11T06:31:11.776Z,11.50
2017-08-11T06:33:39.642Z,11.60
2017-08-11T06:36:07.342Z,11.50
2017-08-11T06:38:34.980Z,11.60
2017-08-11T06:41:02.663Z,11.50
2017-08-11T06:43:30.282Z,11.50
2017-08-11T06:45:57.928Z,11.50
2017-08-11T06:48:25.613Z,11.50
2017-08-11T06:50:53.228Z,11.50
2017-08-11T06:53:20.848Z,11.60
2017-08-11T06:55:48.544Z,11.60
2017-08-11T06:58:16.305Z,11.60
2017-08-11T07:00:43.940Z,11.60
2017-08-11T07:03:11.933Z,11.60
2017-08-11T07:05:39.560Z,11.60
2017-08-11T07:08:07.188Z,11.60
2017-08-11T07:10:34.937Z,11.70
2017-08-11T07:13:02.566Z,11.60
2017-08-11T07:15:30.189Z,11.60
2017-08-11T07:17:58.433Z,11.60
2017-08-11T07:20:26.058Z,11.60
2017-08-11T07:22:53.883Z,11.70
2017-08-11T07:25:21.797Z,11.60
2017-08-11T07:27:49.421Z,11.60
2017-08-11T07:30:17.182Z,11.60
2017-08-11T07:32:45.596Z,11.70
2017-08-11T07:35:13.234Z,11.70
2017-08-11T07:37:40.884Z,11.70
2017-08-11T07:40:08.568Z,11.60
2017-08-11T07:42:36.205Z,11.60
2017-08-11T07:45:03.840Z,11.70
2017-08-11T07:47:31.713Z,11.70
2017-08-11T07:49:59.353Z,11.70
2017-08-11T07:52:26.973Z,11.80
2017-08-11T07:54:54.630Z,11.80
2017-08-11T07:57:22.373Z,11.80
2017-08-11T07:59:50.001Z,11.90
2017-08-11T08:02:17.825Z,11.90
2017-08-11T08:04:45.453Z,11.90
2017-08-11T08:07:13.081Z,12.00
2017-08-11T08:09:40.768Z,12.00
2017-08-11T08:12:08.388Z,12.00
2017-08-11T08:14:36.781Z,12.00
2017-08-11T08:17:04.465Z,12.00
2017-08-11T08:19:32.089Z,12.00
2017-08-11T08:21:59.720Z,12.00
2017-08-11T08:24:27.396Z,12.00
2017-08-11T08:26:55.214Z,12.00
2017-08-11T08:29:22.828Z,12.00
2017-08-11T08:31:50.510Z,12.00
2017-08-11T08:34:18.946Z,12.00
2017-08-11T08:36:46.582Z,12.00
2017-08-11T08:39:14.245Z,12.00
2017-08-11T08:41:41.876Z,12.00
2017-08-11T08:44:10.264Z,12.00
2017-08-11T08:46:38.872Z,12.00
2017-08-11T08:49:06.684Z,12.00
2017-08-11T08:51:34.312Z,12.10
2017-08-11T08:54:02.247Z,12.00
2017-08-11T08:56:30.897Z,12.00
2017-08-11T08:58:58.542Z,12.00
2017-08-11T09:01:26.212Z,12.10
2017-08-11T09:03:53.889Z,12.10
2017-08-11T09:06:21.539Z,12.20
2017-08-11T09:08:49.216Z,12.20
2017-08-11T09:11:16.853Z,12.30
2017-08-11T09:13:44.493Z,12.40
2017-08-11T09:16:12.306Z,12.30
2017-08-11T09:18:39.928Z,12.30
2017-08-11T09:21:07.563Z,12.30
2017-08-11T09:23:35.244Z,12.20
2017-08-11T09:26:14.912Z,12.20
2017-08-11T09:29:06.144Z,12.20
2017-08-11T09:31:55.341Z,12.20
2017-08-11T09:34:45.552Z,12.20
2017-08-11T09:37:13.705Z,12.20
2017-08-11T09:39:41.333Z,12.30
2017-08-11T09:42:09.013Z,12.40
2017-08-11T09:44:36.677Z,12.40
2017-08-11T09:47:04.305Z,12.40
2017-08-11T09:49:31.984Z,12.50
2017-08-11T09:51:59.620Z,12.50
2017-08-11T09:54:27.310Z,12.60
2017-08-11T09:56:55.304Z,12.60
2017-08-11T09:59:22.944Z,12.60
2017-08-11T10:01:50.920Z,12.70
2017-08-11T10:04:18.688Z,12.60
2017-08-11T10:06:46.314Z,12.60
2017-08-11T10:09:13.948Z,12.60
2017-08-11T10:11:41.633Z,12.60
2017-08-11T10:14:09.263Z,12.50
2017-08-11T10:16:36.887Z,12.50
2017-08-11T10:19:04.590Z,12.50
2017-08-11T10:21:32.253Z,12.40
2017-08-11T10:24:00.195Z,12.50
2017-08-11T10:26:27.884Z,12.40
2017-08-11T10:28:55.650Z,12.50
2017-08-11T10:31:23.285Z,12.50
2017-08-11T10:33:50.944Z,12.40
2017-08-11T10:36:18.575Z,12.40
2017-08-11T10:38:46.701Z,12.40
2017-08-11T10:41:14.400Z,12.40
2017-08-11T10:43:42.016Z,12.40
2017-08-11T10:46:09.781Z,12.50
2017-08-11T10:48:37.468Z,12.50
2017-08-11T10:51:05.089Z,12.50
2017-08-11T10:53:32.704Z,12.50
2017-08-11T10:56:01.156Z,12.40
2017-08-11T10:58:29.506Z,12.40
2017-08-11T11:00:57.210Z,12.30
2017-08-11T11:03:24.898Z,12.20
2017-08-11T11:05:52.527Z,12.10
2017-08-11T11:08:20.151Z,12.10
2017-08-11T11:10:47.828Z,12.20
2017-08-11T11:13:15.452Z,12.20
2017-08-11T11:15:43.885Z,12.30
2017-08-11T11:18:11.557Z,12.20
2017-08-11T11:20:39.180Z,12.30
2017-08-11T11:23:07.092Z,12.30
2017-08-11T11:25:35.232Z,12.30
2017-08-11T11:28:02.929Z,12.30
2017-08-11T11:30:30.549Z,12.30
2017-08-11T11:32:58.217Z,12.30
2017-08-11T11:35:25.849Z,12.30
2017-08-11T11:37:53.678Z,12.30
2017-08-11T11:40:21.360Z,12.30
2017-08-11T11:42:49.217Z,12.30
2017-08-11T11:45:16.860Z,12.30
2017-08-11T11:47:45.078Z,12.30
2017-08-11T11:50:12.821Z,12.30
2017-08-11T11:52:40.448Z,12.30
2017-08-11T11:55:08.128Z,12.40
2017-08-11T11:57:35.748Z,12.40
2017-08-11T12:00:03.384Z,12.50
2017-08-11T12:02:31.056Z,12.50
2017-08-11T12:04:58.696Z,12.50
2017-08-11T12:07:26.343Z,12.60
2017-08-11T12:09:54.052Z,12.60
2017-08-11T12:12:22.436Z,12.70
2017-08-11T12:14:50.828Z,12.70
2017-08-11T12:17:18.624Z,12.70
2017-08-11T12:19:46.250Z,12.80
2017-08-11T12:22:14.782Z,12.80
2017-08-11T12:24:42.472Z,12.80
2017-08-11T12:27:10.109Z,12.80
2017-08-11T12:29:37.990Z,12.90
2017-08-11T12:32:05.671Z,12.80
2017-08-11T12:34:33.298Z,12.80
2017-08-11T12:37:00.929Z,12.90
2017-08-11T12:39:28.610Z,13.00
2017-08-11T12:41:56.516Z,13.10
2017-08-11T12:44:24.137Z,13.10
2017-08-11T12:46:51.812Z,13.10
2017-08-11T12:49:19.441Z,13.00
2017-08-11T12:51:47.061Z,13.00
2017-08-11T12:54:14.748Z,13.00
2017-08-11T12:56:43.141Z,13.10
2017-08-11T12:59:11.529Z,13.20
2017-08-11T13:01:39.205Z,13.10
2017-08-11T13:04:06.840Z,13.20
2017-08-11T13:06:34.472Z,13.20
2017-08-11T13:09:02.145Z,13.10
2017-08-11T13:11:29.770Z,13.10
2017-08-11T13:13:57.389Z,13.20
2017-08-11T13:16:25.058Z,13.20
2017-08-11T13:18:52.681Z,13.20
2017-08-11T13:21:20.300Z,13.20
2017-08-11T13:23:47.964Z,13.30
2017-08-11T13:26:15.592Z,13.30
2017-08-11T13:28:43.209Z,13.30
2017-08-11T13:31:10.872Z,13.30
2017-08-11T13:33:38.504Z,13.30
2017-08-11T13:36:06.212Z,13.20
2017-08-11T13:38:34.265Z,13.20
2017-08-11T13:41:01.881Z,13.20
2017-08-11T13:43:29.770Z,13.10
2017-08-11T13:45:58.219Z,13.20
2017-08-11T13:48:25.868Z,13.10
2017-08-11T13:50:53.484Z,13.20
2017-08-11T13:53:21.166Z,13.20
2017-08-11T13:55:48.832Z,13.10
2017-08-11T13:58:16.475Z,13.10
2017-08-11T14:00:44.188Z,13.20
2017-08-11T14:03:12.166Z,13.20
2017-08-11T14:05:39.802Z,13.20
2017-08-11T14:08:07.492Z,13.30
2017-08-11T14:10:35.136Z,13.30
2017-08-11T14:13:02.765Z,13.30
2017-08-11T14:15:30.437Z,13.30
2017-08-11T14:17:58.237Z,13.40
2017-08-11T14:20:25.864Z,13.40
2017-08-11T14:22:53.533Z,13.50
2017-08-11T14:25:21.169Z,13.40
2017-08-11T14:27:49.580Z,13.40
2017-08-11T14:30:17.259Z,13.40
2017-08-11T14:32:44.905Z,13.30
2017-08-11T14:35:12.524Z,13.30
2017-08-11T14:37:41.184Z,13.30
2017-08-11T14:40:08.823Z,13.20
2017-08-11T14:42:36.440Z,13.20
2017-08-11T14:45:04.885Z,13.20
2017-08-11T14:47:32.640Z,13.20
2017-08-11T14:50:00.257Z,13.20
2017-08-11T14:52:28.172Z,13.20
2017-08-11T14:54:55.851Z,13.20
2017-08-11T14:57:24.262Z,13.20
2017-08-11T14:59:52.696Z,13.30
2017-08-11T15:02:20.321Z,13.30
2017-08-11T15:04:48.139Z,13.30
2017-08-11T15:07:16.090Z,13.30
2017-08-11T15:09:43.720Z,13.40
2017-08-11T15:12:11.343Z,13.40
2017-08-11T15:14:39.028Z,13.40
2017-08-11T15:17:06.648Z,13.40
2017-08-11T15:19:34.270Z,13.40
2017-08-11T15:22:02.154Z,13.40
2017-08-11T15:24:29.771Z,13.40
2017-08-11T15:26:57.416Z,13.30
2017-08-11T15:29:25.061Z,13.20
2017-08-11T15:31:53.029Z,13.30
2017-08-11T15:34:20.711Z,13.20
2017-08-11T15:36:48.332Z,13.30
2017-08-11T15:39:15.948Z,13.30
2017-08-11T15:41:43.696Z,13.30
2017-08-11T15:44:11.326Z,13.40
2017-08-11T15:46:38.989Z,13.40
2017-08-11T15:49:06.691Z,13.40
2017-08-11T15:51:34.544Z,13.50
2017-08-11T15:54:02.220Z,13.60
2017-08-11T15:56:29.832Z,13.50
2017-08-11T15:58:57.474Z,13.50
2017-08-11T16:01:25.918Z,13.70
2017-08-11T16:03:53.548Z,13.70
2017-08-11T16:06:21.164Z,13.70
2017-08-11T16:08:48.940Z,13.70
2017-08-11T16:11:16.564Z,13.70
2017-08-11T16:13:44.726Z,13.70
2017-08-11T16:16:12.724Z,13.70
2017-08-11T16:18:40.580Z,13.70
2017-08-11T16:21:08.196Z,13.80
2017-08-11T16:23:35.863Z,13.70
2017-08-11T16:26:03.621Z,13.60
2017-08-11T16:28:31.643Z,13.60
2017-08-11T16:30:59.302Z,13.60
2017-08-11T16:33:26.941Z,13.70
2017-08-11T16:35:54.945Z,13.70
2017-08-11T16:38:23.366Z,13.70
2017-08-11T16:40:50.992Z,13.70
2017-08-11T16:43:19.053Z,13.70
2017-08-11T16:45:46.904Z,13.60
2017-08-11T16:48:14.535Z,13.60
2017-08-11T16:50:42.161Z,13.70
2017-08-11T16:53:09.852Z,13.70
2017-08-11T16:55:38.233Z,13.60
2017-08-11T16:58:05.844Z,13.50
2017-08-11T17:00:33.517Z,13.60
2017-08-11T17:03:01.145Z,13.60
2017-08-11T17:05:29.044Z,13.60
2017-08-11T17:07:56.707Z,13.50
2017-08-11T17:10:24.338Z,13.60
2017-08-11T17:12:51.968Z,13.70
2017-08-11T17:15:20.405Z,13.70
2017-08-11T17:17:48.218Z,13.60
2017-08-11T17:20:16.759Z,13.70
2017-08-11T17:22:44.425Z,13.70
2017-08-11T17:25:12.041Z,13.60
2017-08-11T17:27:40.425Z,13.70
2017-08-11T17:30:08.093Z,13.70
2017-08-11T17:32:35.706Z,13.60
2017-08-11T17:35:03.332Z,13.60
2017-08-11T17:37:30.986Z,13.60
2017-08-11T17:39:58.610Z,13.60
2017-08-11T17:42:26.483Z,13.60
2017-08-11T17:44:54.215Z,13.50
2017-08-11T17:47:21.980Z,13.50
2017-08-11T17:49:49.590Z,13.50
2017-08-11T17:52:17.846Z,13.40
2017-08-11T17:54:45.891Z,13.40
2017-08-11T17:57:13.662Z,13.40
2017-08-11T17:59:41.940Z,13.50
2017-08-11T18:02:09.801Z,13.50
2017-08-11T18:04:37.570Z,13.40
2017-08-11T18:07:05.335Z,13.40
2017-08-11T18:09:33.100Z,13.40
2017-08-11T18:12:00.781Z,13.40
2017-08-11T18:14:28.464Z,13.40
2017-08-11T18:16:56.088Z,13.40
2017-08-11T18:19:23.734Z,13.30
2017-08-11T18:21:51.601Z,13.30
2017-08-11T18:24:20.286Z,13.30
2017-08-11T18:26:48.072Z,13.20
2017-08-11T18:29:15.771Z,13.20
2017-08-11T18:31:44.232Z,13.30
2017-08-11T18:34:11.983Z,13.30
2017-08-11T18:36:39.694Z,13.30
2017-08-11T18:39:07.365Z,13.20
2017-08-11T18:41:35.324Z,13.20
2017-08-11T18:44:03.047Z,13.20
2017-08-11T18:46:31.119Z,13.20
2017-08-11T18:48:59.368Z,13.20
2017-08-11T18:51:27.453Z,13.10
2017-08-11T18:53:55.369Z,13.20
2017-08-11T18:56:23.051Z,13.10
2017-08-11T18:58:51.767Z,13.10
2017-08-11T19:01:20.481Z,13.10
2017-08-11T19:03:48.247Z,13.10
2017-08-11T19:06:16.018Z,13.10
2017-08-11T19:08:43.653Z,13.10
2017-08-11T19:11:11.845Z,13.10
2017-08-11T19:13:40.048Z,13.20
2017-08-11T19:16:07.689Z,13.20
2017-08-11T19:18:35.356Z,13.20
2017-08-11T19:21:03.228Z,13.20
2017-08-11T19:23:31.179Z,13.10
2017-08-11T19:25:58.859Z,13.10
2017-08-11T19:28:27.237Z,13.10
2017-08-11T19:30:55.606Z,13.10
2017-08-11T19:33:23.538Z,13.00
2017-08-11T19:35:51.269Z,13.00
2017-08-11T19:38:19.174Z,13.00
2017-08-11T19:40:46.995Z,13.00
2017-08-11T19:43:15.783Z,13.00
2017-08-11T19:45:44.381Z,12.90
2017-08-11T19:48:12.288Z,12.90
2017-08-11T19:50:40.477Z,12.90
2017-08-11T19:53:08.154Z,12.90
2017-08-11T19:55:36.226Z,13.00
2017-08-11T19:58:04.404Z,13.00
2017-08-11T20:00:32.137Z,13.00
2017-08-11T20:03:00.184Z,13.00
2017-08-11T20:05:28.393Z,13.00
2017-08-11T20:07:56.320Z,13.00
2017-08-11T20:10:24.017Z,13.00
2017-08-11T20:12:52.078Z,13.00
2017-08-11T20:15:20.481Z,13.10
2017-08-11T20:17:48.404Z,13.00
2017-08-11T20:20:16.150Z,13.00
2017-08-11T20:22:44.479Z,13.00
2017-08-11T20:25:12.772Z,13.00
2017-08-11T20:27:40.445Z,13.00
2017-08-11T20:30:08.076Z,12.90
2017-08-11T20:32:36.420Z,12.90
2017-08-11T20:35:04.818Z,13.00
2017-08-11T20:37:33.722Z,13.00
2017-08-11T20:40:01.834Z,13.10
2017-08-11T20:42:31.773Z,13.10
2017-08-11T20:45:00.163Z,13.10
2017-08-11T20:47:29.735Z,13.10
2017-08-11T20:49:58.745Z,13.10
2017-08-11T20:52:27.118Z,13.10
2017-08-11T20:54:55.853Z,13.10
2017-08-11T20:57:23.671Z,13.10
2017-08-11T20:59:52.592Z,13.10
2017-08-11T21:02:20.464Z,13.10
2017-08-11T21:04:48.338Z,13.10
2017-08-11T21:07:16.767Z,13.20
2017-08-11T21:09:44.533Z,13.20
2017-08-11T21:12:12.586Z,13.20
2017-08-11T21:14:41.564Z,13.30
2017-08-11T21:17:10.377Z,13.30
2017-08-11T21:19:39.047Z,13.30
2017-08-11T21:22:07.649Z,13.30
2017-08-11T21:24:35.440Z,13.30
2017-08-11T21:27:03.555Z,13.20
2017-08-11T21:29:31.888Z,13.30
2017-08-11T21:32:00.592Z,13.30
2017-08-11T21:34:28.359Z,13.20
2017-08-11T21:36:55.978Z,13.20
2017-08-11T21:39:23.826Z,13.30
2017-08-11T21:41:52.551Z,13.20
2017-08-11T21:44:20.225Z,13.20
2017-08-11T21:46:47.908Z,13.20
2017-08-11T21:49:15.732Z,13.10
2017-08-11T21:51:43.972Z,13.10
2017-08-11T21:54:12.217Z,13.10
2017-08-11T21:56:40.110Z,13.10
2017-08-11T21:59:08.834Z,13.10
2017-08-11T22:01:36.701Z,13.10
2017-08-11T22:04:04.623Z,13.10
2017-08-11T22:06:33.239Z,13.10
2017-08-11T22:09:02.531Z,13.00
2017-08-11T22:11:32.221Z,12.90
2017-08-11T22:14:00.476Z,12.90
2017-08-11T22:16:30.131Z,12.90
2017-08-11T22:18:57.890Z,12.90
2017-08-11T22:21:26.287Z,12.90
2017-08-11T22:23:53.892Z,12.80
2017-08-11T22:26:21.564Z,12.90
2017-08-11T22:28:49.190Z,12.90
2017-08-11T22:31:16.837Z,12.90
2017-08-11T22:33:44.826Z,12.90
2017-08-11T22:36:12.609Z,12.90
2017-08-11T22:38:40.220Z,13.00
2017-08-11T22:41:08.123Z,13.00
2017-08-11T22:43:35.748Z,13.00
2017-08-11T22:46:03.500Z,13.00
2017-08-11T22:48:31.184Z,13.00
2017-08-11T22:50:58.809Z,13.00
2017-08-11T22:53:26.420Z,13.10
2017-08-11T22:55:54.341Z,13.10
2017-08-11T22:58:22.105Z,13.20
2017-08-11T23:00:49.753Z,13.20
2017-08-11T23:03:17.637Z,13.20
2017-08-11T23:05:45.265Z,13.10
2017-08-11T23:08:12.880Z,13.10
2017-08-11T23:10:40.540Z,13.10
2017-08-11T23:13:08.165Z,13.10
2017-08-11T23:15:35.789Z,13.10
